createdAt,value
2023-05-24T00:00:37.190Z,17.30
2023-05-24T00:03:05.092Z,17.20
2023-05-24T00:05:32.351Z,17.20
2023-05-24T00:08:00.422Z,17.20
2023-05-24T00:10:27.611Z,17.20
2023-05-24T00:12:54.660Z,17.20
2023-05-24T00:15:21.991Z,17.20
2023-05-24T00:17:49.135Z,17.20
2023-05-24T00:20:16.250Z,17.20
2023-05-24T00:22:43.407Z,17.20
2023-05-24T00:25:11.486Z,17.10
2023-05-24T00:27:38.528Z,17.10
2023-05-24T00:30:06.915Z,17.10
2023-05-24T00:32:34.360Z,17.10
2023-05-24T00:35:01.379Z,17.10
2023-05-24T00:37:29.636Z,17.10
2023-05-24T00:39:56.701Z,17.00
2023-05-24T00:42:24.086Z,17.00
2023-05-24T00:44:51.095Z,17.00
2023-05-24T00:47:18.159Z,17.00
2023-05-24T00:49:46.889Z,17.00
2023-05-24T00:52:14.203Z,17.00
2023-05-24T00:54:41.317Z,17.00
2023-05-24T00:57:08.596Z,17.00
2023-05-24T00:59:36.146Z,16.90
2023-05-24T01:02:05.080Z,16.90
2023-05-24T01:04:33.255Z,16.90
2023-05-24T01:07:08.183Z,16.90
2023-05-24T01:10:15.764Z,16.80
2023-05-24T01:13:05.973Z,16.80
2023-05-24T01:15:38.797Z,16.70
2023-05-24T01:18:11.776Z,16.70
2023-05-24T01:20:41.210Z,16.70
2023-05-24T01:23:46.193Z,16.60
2023-05-24T01:27:08.193Z,16.60
2023-05-24T01:29:36.384Z,16.60
2023-05-24T01:32:03.926Z,16.50
2023-05-24T01:34:31.182Z,16.60
2023-05-24T01:36:58.368Z,16.50
2023-05-24T01:39:29.641Z,16.50
2023-05-24T01:42:16.445Z,16.50
2023-05-24T01:45:00.093Z,16.50
2023-05-24T01:48:04.396Z,16.50
2023-05-24T01:50:36.030Z,16.50
2023-05-24T01:53:06.648Z,16.50
2023-05-24T01:55:35.728Z,16.50
2023-05-24T01:58:05.123Z,16.50
2023-05-24T02:00:35.279Z,16.50
2023-05-24T02:03:03.520Z,16.40
2023-05-24T02:05:32.910Z,16.40
2023-05-24T02:08:00.043Z,16.40
2023-05-24T02:10:27.181Z,16.40
2023-05-24T02:12:54.567Z,16.40
2023-05-24T02:15:22.313Z,16.30
2023-05-24T02:17:49.535Z,16.30
2023-05-24T02:20:17.495Z,16.30
2023-05-24T02:22:44.768Z,16.20
2023-05-24T02:25:11.795Z,16.20
2023-05-24T02:27:39.030Z,16.20
2023-05-24T02:30:07.253Z,16.20
2023-05-24T02:32:35.292Z,16.20
2023-05-24T02:35:02.276Z,16.10
2023-05-24T02:37:29.390Z,16.10
2023-05-24T02:39:56.461Z,16.10
2023-05-24T02:42:24.742Z,16.10
2023-05-24T02:44:52.899Z,16.00
2023-05-24T02:47:20.109Z,16.00
2023-05-24T02:49:47.137Z,16.00
2023-05-24T02:52:14.752Z,15.90
2023-05-24T02:54:41.879Z,15.90
2023-05-24T02:57:08.968Z,15.90
2023-05-24T02:59:36.432Z,15.90
2023-05-24T03:02:03.680Z,15.90
2023-05-24T03:04:30.726Z,15.90
2023-05-24T03:06:57.871Z,15.90
2023-05-24T03:09:24.955Z,15.90
2023-05-24T03:11:54.545Z,15.90
2023-05-24T03:14:24.051Z,15.80
2023-05-24T03:16:51.967Z,15.80
2023-05-24T03:19:18.967Z,15.90
2023-05-24T03:21:46.168Z,15.90
2023-05-24T03:24:14.788Z,15.80
2023-05-24T03:26:42.962Z,15.80
2023-05-24T03:29:10.280Z,15.80
2023-05-24T03:31:40.776Z,15.90
2023-05-24T03:34:08.100Z,15.90
2023-05-24T03:36:36.705Z,15.80
2023-05-24T03:39:04.746Z,15.90
2023-05-24T03:41:38.709Z,15.80
2023-05-24T03:44:05.814Z,15.90
2023-05-24T03:46:32.932Z,15.80
2023-05-24T03:49:01.131Z,15.80
2023-05-24T03:51:29.849Z,15.80
2023-05-24T03:53:57.688Z,15.80
2023-05-24T03:56:27.432Z,15.80
2023-05-24T03:58:54.530Z,15.70
2023-05-24T04:01:32.767Z,15.70
2023-05-24T04:04:01.753Z,15.70
2023-05-24T04:06:29.911Z,15.70
2023-05-24T04:08:59.890Z,15.70
2023-05-24T04:11:29.914Z,15.70
2023-05-24T04:13:58.260Z,15.70
2023-05-24T04:16:26.570Z,15.70
2023-05-24T04:18:55.366Z,15.70
2023-05-24T04:21:23.264Z,15.70
2023-05-24T04:23:50.382Z,15.70
2023-05-24T04:26:17.919Z,15.70
2023-05-24T04:28:48.708Z,15.70
2023-05-24T04:31:16.666Z,15.70
2023-05-24T04:33:44.018Z,15.70
2023-05-24T04:36:11.815Z,15.70
2023-05-24T04:38:39.750Z,15.60
2023-05-24T04:41:07.077Z,15.60
2023-05-24T04:43:35.285Z,15.60
2023-05-24T04:46:03.051Z,15.60
2023-05-24T04:48:30.215Z,15.70
2023-05-24T04:51:00.902Z,15.70
2023-05-24T04:53:29.243Z,15.70
2023-05-24T04:55:56.455Z,15.60
2023-05-24T04:58:23.417Z,15.70
2023-05-24T05:00:50.904Z,15.60
2023-05-24T05:03:18.475Z,15.60
2023-05-24T05:05:46.629Z,15.50
2023-05-24T05:08:14.228Z,15.50
2023-05-24T05:10:41.634Z,15.50
2023-05-24T05:13:08.704Z,15.50
2023-05-24T05:15:35.720Z,15.40
2023-05-24T05:18:02.724Z,15.50
2023-05-24T05:20:29.821Z,15.50
2023-05-24T05:22:57.762Z,15.50
2023-05-24T05:25:25.255Z,15.50
2023-05-24T05:27:52.239Z,15.50
2023-05-24T05:30:19.388Z,15.50
2023-05-24T05:32:46.747Z,15.50
2023-05-24T05:35:14.844Z,15.60
2023-05-24T05:37:42.214Z,15.60
2023-05-24T05:40:09.990Z,15.60
2023-05-24T05:42:37.126Z,15.60
2023-05-24T05:45:04.456Z,15.60
2023-05-24T05:47:31.475Z,15.60
2023-05-24T05:49:58.512Z,15.70
2023-05-24T05:52:25.631Z,15.70
2023-05-24T05:54:52.703Z,15.70
2023-05-24T05:57:24.995Z,15.70
2023-05-24T05:59:52.400Z,15.80
2023-05-24T06:02:19.546Z,15.80
2023-05-24T06:04:47.255Z,15.90
2023-05-24T06:07:14.471Z,15.90
2023-05-24T06:09:41.851Z,15.90
2023-05-24T06:12:09.006Z,16.00
2023-05-24T06:14:38.508Z,16.10
2023-05-24T06:17:06.937Z,16.10
2023-05-24T06:19:34.268Z,16.20
2023-05-24T06:22:01.797Z,16.30
2023-05-24T06:24:28.835Z,16.30
2023-05-24T06:26:56.060Z,16.30
2023-05-24T06:29:25.187Z,16.30
2023-05-24T06:31:52.502Z,16.30
2023-05-24T06:34:23.598Z,16.40
2023-05-24T06:36:53.041Z,16.40
2023-05-24T06:39:20.221Z,16.50
2023-05-24T06:41:47.584Z,16.50
2023-05-24T06:44:14.943Z,16.60
2023-05-24T06:46:42.635Z,16.60
2023-05-24T06:49:09.876Z,16.70
2023-05-24T06:51:38.145Z,16.70
2023-05-24T06:54:05.208Z,16.70
2023-05-24T06:56:32.191Z,16.70
2023-05-24T06:58:59.907Z,16.70
2023-05-24T07:01:27.817Z,16.70
2023-05-24T07:03:55.383Z,16.80
2023-05-24T07:06:22.419Z,16.80
2023-05-24T07:08:49.434Z,16.80
2023-05-24T07:11:16.673Z,16.90
2023-05-24T07:13:43.715Z,16.90
2023-05-24T07:16:11.821Z,16.90
2023-05-24T07:18:38.975Z,17.00
2023-05-24T07:21:06.037Z,16.90
2023-05-24T07:23:33.126Z,16.90
2023-05-24T07:26:00.322Z,16.90
2023-05-24T07:28:27.690Z,16.80
2023-05-24T07:30:54.708Z,16.70
2023-05-24T07:33:22.123Z,16.70
2023-05-24T07:35:52.125Z,16.70
2023-05-24T07:38:19.514Z,16.70
2023-05-24T07:40:46.616Z,16.60
2023-05-24T07:43:13.666Z,16.60
2023-05-24T07:45:41.207Z,16.70
2023-05-24T07:48:08.404Z,16.60
2023-05-24T07:50:36.282Z,16.60
2023-05-24T07:53:03.224Z,16.60
2023-05-24T07:55:30.251Z,16.70
2023-05-24T07:57:57.307Z,16.70
2023-05-24T08:00:25.408Z,16.70
2023-05-24T08:02:52.575Z,16.70
2023-05-24T08:05:19.662Z,16.80
2023-05-24T08:07:46.708Z,16.80
2023-05-24T08:10:14.134Z,16.90
2023-05-24T08:12:41.831Z,17.00
2023-05-24T08:15:09.387Z,17.00
2023-05-24T08:17:37.129Z,17.10
2023-05-24T08:20:10.106Z,17.20
2023-05-24T08:22:37.846Z,17.30
2023-05-24T08:25:06.347Z,17.30
2023-05-24T08:27:33.760Z,17.30
2023-05-24T08:30:00.873Z,17.40
2023-05-24T08:32:27.903Z,17.40
2023-05-24T08:35:03.545Z,17.50
2023-05-24T08:37:38.045Z,17.50
2023-05-24T08:40:07.437Z,17.50
2023-05-24T08:42:34.912Z,17.50
2023-05-24T08:45:09.737Z,17.60
2023-05-24T08:47:38.244Z,17.60
2023-05-24T08:50:06.833Z,17.60
2023-05-24T08:52:37.197Z,17.60
2023-05-24T08:55:05.815Z,17.60
2023-05-24T08:57:35.055Z,17.60
2023-05-24T09:00:02.280Z,17.60
2023-05-24T09:02:30.381Z,17.60
2023-05-24T09:04:58.593Z,17.60
2023-05-24T09:07:26.530Z,17.60
2023-05-24T09:10:05.976Z,17.60
2023-05-24T09:12:38.232Z,17.70
2023-05-24T09:15:08.623Z,17.70
2023-05-24T09:17:37.426Z,17.60
2023-05-24T09:20:11.236Z,17.60
2023-05-24T09:22:42.614Z,17.60
2023-05-24T09:25:13.464Z,17.60
2023-05-24T09:27:40.957Z,17.60
2023-05-24T09:30:12.802Z,17.70
2023-05-24T09:32:40.264Z,17.80
2023-05-24T09:35:10.725Z,17.90
2023-05-24T09:37:39.085Z,18.00
2023-05-24T09:40:11.030Z,18.20
2023-05-24T09:42:38.580Z,18.40
2023-05-24T09:45:09.753Z,18.60
2023-05-24T09:47:39.518Z,18.80
2023-05-24T09:50:17.524Z,19.00
2023-05-24T09:52:45.480Z,19.20
2023-05-24T09:55:23.662Z,19.40
2023-05-24T09:57:53.406Z,19.50
2023-05-24T10:00:25.121Z,19.70
2023-05-24T10:03:03.108Z,20.00
2023-05-24T10:05:31.346Z,20.20
2023-05-24T10:07:59.550Z,20.50
2023-05-24T10:10:31.510Z,20.60
2023-05-24T10:13:00.545Z,20.80
2023-05-24T10:15:28.346Z,20.90
2023-05-24T10:17:56.768Z,21.00
2023-05-24T10:20:24.874Z,21.10
2023-05-24T10:22:59.322Z,21.20
2023-05-24T10:25:29.331Z,21.20
2023-05-24T10:28:03.508Z,21.20
2023-05-24T10:30:52.503Z,21.20
2023-05-24T10:33:22.577Z,21.20
2023-05-24T10:35:50.247Z,21.20
2023-05-24T10:38:19.583Z,21.20
2023-05-24T10:40:46.635Z,21.30
2023-05-24T10:43:13.912Z,21.40
2023-05-24T10:45:42.052Z,21.40
2023-05-24T10:48:29.400Z,21.50
2023-05-24T10:50:56.771Z,21.50
2023-05-24T10:53:27.463Z,21.50
2023-05-24T10:56:06.442Z,21.60
2023-05-24T10:58:54.679Z,21.60
2023-05-24T11:01:31.426Z,21.70
2023-05-24T11:04:08.859Z,21.80
2023-05-24T11:06:46.992Z,21.90
2023-05-24T11:09:15.518Z,21.90
2023-05-24T11:11:46.397Z,21.90
2023-05-24T11:14:14.816Z,21.90
2023-05-24T11:16:46.188Z,21.90
2023-05-24T11:19:20.514Z,21.90
2023-05-24T11:21:51.167Z,21.90
2023-05-24T11:24:19.823Z,21.80
2023-05-24T11:26:47.560Z,21.80
2023-05-24T11:29:17.821Z,21.70
2023-05-24T11:32:05.826Z,21.60
2023-05-24T11:34:33.879Z,21.60
2023-05-24T11:37:03.095Z,21.50
2023-05-24T11:39:35.578Z,21.60
2023-05-24T11:42:07.184Z,21.50
2023-05-24T11:44:38.238Z,21.60
2023-05-24T11:47:07.685Z,21.60
2023-05-24T11:49:34.889Z,21.60
2023-05-24T11:52:02.846Z,21.70
2023-05-24T11:54:32.780Z,21.70
2023-05-24T11:57:00.484Z,21.70
2023-05-24T11:59:29.273Z,21.70
2023-05-24T12:02:00.467Z,21.70
2023-05-24T12:04:29.212Z,21.80
2023-05-24T12:06:56.478Z,21.80
2023-05-24T12:09:23.810Z,21.90
2023-05-24T12:11:52.272Z,22.00
2023-05-24T12:14:24.547Z,22.00
2023-05-24T12:16:54.142Z,22.00
2023-05-24T12:21:59.184Z,22.00
2023-05-24T12:24:27.714Z,22.00
2023-05-24T12:27:01.863Z,22.00
2023-05-24T12:29:42.608Z,21.90
2023-05-24T12:32:14.032Z,21.90
2023-05-24T12:34:43.788Z,21.90
2023-05-24T12:37:15.400Z,21.90
2023-05-24T12:39:44.003Z,21.90
2023-05-24T12:42:13.375Z,22.00
2023-05-24T12:44:41.104Z,22.00
2023-05-24T12:47:09.199Z,22.00
2023-05-24T12:49:37.238Z,22.10
2023-05-24T12:52:04.843Z,22.10
2023-05-24T12:54:31.891Z,22.20
2023-05-24T12:57:00.530Z,22.20
2023-05-24T12:59:28.860Z,22.20
2023-05-24T13:01:57.226Z,22.20
2023-05-24T13:04:26.495Z,22.10
2023-05-24T13:06:53.811Z,22.10
2023-05-24T13:09:22.582Z,22.10
2023-05-24T13:11:50.983Z,22.10
2023-05-24T13:14:20.058Z,22.20
2023-05-24T13:16:48.022Z,22.10
2023-05-24T13:19:15.285Z,22.10
2023-05-24T13:21:42.811Z,22.10
2023-05-24T13:24:10.060Z,22.00
2023-05-24T13:26:38.420Z,22.00
2023-05-24T13:29:32.340Z,22.00
2023-05-24T13:31:56.573Z,22.00
2023-05-24T13:34:27.246Z,21.90
2023-05-24T13:36:54.959Z,21.90
2023-05-24T13:39:22.647Z,21.80
2023-05-24T13:41:49.938Z,21.90
2023-05-24T13:44:17.333Z,21.90
2023-05-24T13:46:45.010Z,21.90
2023-05-24T13:49:12.397Z,21.90
2023-05-24T13:51:39.723Z,21.90
2023-05-24T13:54:08.206Z,22.00
2023-05-24T13:56:35.959Z,22.10
2023-05-24T13:59:04.650Z,22.10
2023-05-24T14:01:33.913Z,22.20
2023-05-24T14:04:02.899Z,22.20
2023-05-24T14:06:30.309Z,22.30
2023-05-24T14:08:58.379Z,22.30
2023-05-24T14:11:26.885Z,22.30
2023-05-24T14:16:25.127Z,22.30
2023-05-24T14:18:53.201Z,22.30
2023-05-24T14:21:25.926Z,22.30
2023-05-24T14:23:53.156Z,22.30
2023-05-24T14:26:25.075Z,22.30
2023-05-24T14:28:55.957Z,22.30
2023-05-24T14:31:23.876Z,22.30
2023-05-24T14:33:51.010Z,22.30
2023-05-24T14:36:19.110Z,22.30
2023-05-24T14:38:46.768Z,22.30
2023-05-24T14:41:13.829Z,22.30
2023-05-24T14:43:42.019Z,22.20
2023-05-24T14:46:09.723Z,22.20
2023-05-24T14:48:37.404Z,22.20
2023-05-24T14:51:04.491Z,22.10
2023-05-24T14:53:31.705Z,22.00
2023-05-24T14:55:58.876Z,21.90
2023-05-24T14:58:27.301Z,21.90
2023-05-24T15:00:54.511Z,21.80
2023-05-24T15:03:21.554Z,21.80
2023-05-24T15:05:49.113Z,21.70
2023-05-24T15:08:16.160Z,21.70
2023-05-24T15:10:46.681Z,21.70
2023-05-24T15:13:13.894Z,21.70
2023-05-24T15:15:42.098Z,21.80
2023-05-24T15:18:09.688Z,21.80
2023-05-24T15:20:37.145Z,21.80
2023-05-24T15:23:04.688Z,21.80
2023-05-24T15:25:31.659Z,21.80
2023-05-24T15:27:58.847Z,21.80
2023-05-24T15:30:25.975Z,21.80
2023-05-24T15:32:53.765Z,21.70
2023-05-24T15:35:21.094Z,21.70
2023-05-24T15:37:48.173Z,21.70
2023-05-24T15:40:16.245Z,21.70
2023-05-24T15:42:43.372Z,21.60
2023-05-24T15:45:11.248Z,21.70
2023-05-24T15:47:40.561Z,21.60
2023-05-24T15:50:09.891Z,21.60
2023-05-24T15:52:37.164Z,21.50
2023-05-24T15:55:04.820Z,21.50
2023-05-24T15:57:32.341Z,21.50
2023-05-24T15:59:59.506Z,21.40
2023-05-24T16:02:27.024Z,21.40
2023-05-24T16:04:57.350Z,21.40
2023-05-24T16:07:24.621Z,21.40
2023-05-24T16:09:52.407Z,21.40
2023-05-24T16:12:20.171Z,21.50
2023-05-24T16:14:47.280Z,21.50
2023-05-24T16:17:17.590Z,21.50
2023-05-24T16:19:47.228Z,21.50
2023-05-24T16:22:14.388Z,21.40
2023-05-24T16:24:41.987Z,21.40
2023-05-24T16:27:10.189Z,21.40
2023-05-24T16:29:37.827Z,21.40
2023-05-24T16:32:05.012Z,21.40
2023-05-24T16:34:38.888Z,21.40
2023-05-24T16:37:13.285Z,21.40
2023-05-24T16:39:40.722Z,21.40
2023-05-24T16:42:08.504Z,21.40
2023-05-24T16:44:35.783Z,21.30
2023-05-24T16:47:02.923Z,21.30
2023-05-24T16:49:29.945Z,21.30
2023-05-24T16:51:56.964Z,21.30
2023-05-24T16:54:24.108Z,21.30
2023-05-24T16:56:54.950Z,21.20
2023-05-24T16:59:23.140Z,21.20
2023-05-24T17:01:51.675Z,21.20
2023-05-24T17:04:19.141Z,21.10
2023-05-24T17:06:46.155Z,21.10
2023-05-24T17:09:13.239Z,21.10
2023-05-24T17:11:40.266Z,21.00
2023-05-24T17:14:08.453Z,21.00
2023-05-24T17:16:36.254Z,21.00
2023-05-24T17:19:03.679Z,21.00
2023-05-24T17:21:31.572Z,21.00
2023-05-24T17:23:59.817Z,21.00
2023-05-24T17:26:27.654Z,21.00
2023-05-24T17:28:57.578Z,20.90
2023-05-24T17:31:25.231Z,20.90
2023-05-24T17:34:00.973Z,20.90
2023-05-24T17:36:28.040Z,20.90
2023-05-24T17:38:55.120Z,20.90
2023-05-24T17:41:22.307Z,20.90
2023-05-24T17:43:49.444Z,20.90
2023-05-24T17:46:17.620Z,20.90
2023-05-24T17:48:45.970Z,20.90
2023-05-24T17:51:13.425Z,20.90
2023-05-24T17:53:43.281Z,20.80
2023-05-24T17:56:10.443Z,20.80
2023-05-24T17:58:38.613Z,20.80
2023-05-24T18:01:12.734Z,20.80
2023-05-24T18:03:43.140Z,20.70
2023-05-24T18:06:10.506Z,20.70
2023-05-24T18:08:41.051Z,20.70
2023-05-24T18:11:08.575Z,20.70
2023-05-24T18:13:39.273Z,20.70
2023-05-24T18:16:07.238Z,20.60
2023-05-24T18:18:34.753Z,20.60
2023-05-24T18:21:01.808Z,20.60
2023-05-24T18:23:30.403Z,20.50
2023-05-24T18:26:00.429Z,20.50
2023-05-24T18:28:28.885Z,20.50
2023-05-24T18:30:56.461Z,20.40
2023-05-24T18:33:23.605Z,20.30
2023-05-24T18:35:50.867Z,20.40
2023-05-24T18:38:17.768Z,20.30
2023-05-24T18:40:44.812Z,20.20
2023-05-24T18:43:13.294Z,20.20
2023-05-24T18:45:40.404Z,20.10
2023-05-24T18:48:08.098Z,20.10
2023-05-24T18:50:35.080Z,20.00
2023-05-24T18:53:02.188Z,20.00
2023-05-24T18:55:29.309Z,19.90
2023-05-24T18:57:58.157Z,19.90
2023-05-24T19:00:25.727Z,19.80
2023-05-24T19:02:53.611Z,19.70
2023-05-24T19:05:21.137Z,19.70
2023-05-24T19:07:48.424Z,19.60
2023-05-24T19:10:15.363Z,19.60
2023-05-24T19:12:42.453Z,19.60
2023-05-24T19:15:10.253Z,19.50
2023-05-24T19:17:37.400Z,19.40
2023-05-24T19:20:04.643Z,19.40
2023-05-24T19:22:31.718Z,19.40
2023-05-24T19:24:58.767Z,19.30
2023-05-24T19:27:25.890Z,19.20
2023-05-24T19:29:52.991Z,19.20
2023-05-24T19:32:22.871Z,19.20
2023-05-24T19:34:49.825Z,19.10
2023-05-24T19:37:17.042Z,19.10
2023-05-24T19:39:44.244Z,19.00
2023-05-24T19:42:14.425Z,19.00
2023-05-24T19:44:42.475Z,18.90
2023-05-24T19:47:09.626Z,18.80
2023-05-24T19:49:36.631Z,18.80
2023-05-24T19:52:03.693Z,18.70
2023-05-24T19:54:30.624Z,18.70
2023-05-24T19:56:58.532Z,18.60
2023-05-24T19:59:25.551Z,18.50
2023-05-24T20:01:52.796Z,18.40
2023-05-24T20:04:20.089Z,18.40
2023-05-24T20:06:47.147Z,18.30
2023-05-24T20:09:18.763Z,18.30
2023-05-24T20:11:46.331Z,18.20
2023-05-24T20:14:13.305Z,18.20
2023-05-24T20:16:40.514Z,18.10
2023-05-24T20:19:07.750Z,18.10
2023-05-24T20:21:34.818Z,18.00
2023-05-24T20:24:01.937Z,18.00
2023-05-24T20:26:28.871Z,17.90
2023-05-24T20:28:55.972Z,17.90
2023-05-24T20:31:22.941Z,17.80
2023-05-24T20:33:51.656Z,17.70
2023-05-24T20:36:18.800Z,17.70
2023-05-24T20:38:45.928Z,17.60
2023-05-24T20:41:12.863Z,17.60
2023-05-24T20:43:39.997Z,17.50
2023-05-24T20:46:07.238Z,17.50
2023-05-24T20:48:34.490Z,17.40
2023-05-24T20:51:01.514Z,17.40
2023-05-24T20:53:30.060Z,17.30
2023-05-24T20:55:57.970Z,17.30
2023-05-24T20:58:24.991Z,17.20
2023-05-24T21:00:52.908Z,17.20
2023-05-24T21:03:20.278Z,17.10
2023-05-24T21:05:47.356Z,17.10
2023-05-24T21:08:14.473Z,17.10
2023-05-24T21:10:41.645Z,17.00
2023-05-24T21:13:08.585Z,17.00
2023-05-24T21:15:35.922Z,16.90
2023-05-24T21:18:06.064Z,16.90
2023-05-24T21:20:33.200Z,16.80
2023-05-24T21:23:00.701Z,16.80
2023-05-24T21:25:27.751Z,16.80
2023-05-24T21:27:54.714Z,16.70
2023-05-24T21:30:21.769Z,16.70
2023-05-24T21:32:48.703Z,16.60
2023-05-24T21:35:16.190Z,16.60
2023-05-24T21:37:43.120Z,16.50
2023-05-24T21:40:10.810Z,16.50
2023-05-24T21:42:38.003Z,16.40
2023-05-24T21:45:05.443Z,16.40
2023-05-24T21:47:33.323Z,16.30
2023-05-24T21:50:00.520Z,16.30
2023-05-24T21:52:28.056Z,16.20
2023-05-24T21:54:55.631Z,16.20
2023-05-24T21:57:26.258Z,16.10
2023-05-24T21:59:53.608Z,16.10
2023-05-24T22:02:21.657Z,16.10
2023-05-24T22:04:49.452Z,16.00
2023-05-24T22:07:16.477Z,16.00
2023-05-24T22:09:43.463Z,16.00
2023-05-24T22:12:10.628Z,15.90
2023-05-24T22:14:37.882Z,15.90
2023-05-24T22:17:05.120Z,15.80
2023-05-24T22:22:03.627Z,15.80
2023-05-24T22:24:32.000Z,15.80
2023-05-24T22:27:01.215Z,15.70
2023-05-24T22:29:28.656Z,15.70
2023-05-24T22:31:55.809Z,15.70
2023-05-24T22:34:29.507Z,15.70
2023-05-24T22:36:57.765Z,15.60
2023-05-24T22:39:24.991Z,15.60
2023-05-24T22:41:53.707Z,15.50
2023-05-24T22:44:20.886Z,15.50
2023-05-24T22:46:53.998Z,15.50
2023-05-24T22:49:21.504Z,15.40
2023-05-24T22:51:50.899Z,15.40
2023-05-24T22:54:18.195Z,15.40
2023-05-24T22:56:46.506Z,15.30
2023-05-24T22:59:13.568Z,15.30
2023-05-24T23:01:40.828Z,15.30
2023-05-24T23:04:20.311Z,15.20
2023-05-24T23:06:49.061Z,15.20
2023-05-24T23:09:17.759Z,15.20
2023-05-24T23:11:46.226Z,15.10
2023-05-24T23:14:14.357Z,15.10
2023-05-24T23:16:45.957Z,15.10
2023-05-24T23:19:18.602Z,15.10
2023-05-24T23:21:46.278Z,15.10
2023-05-24T23:24:16.127Z,15.00
2023-05-24T23:26:43.458Z,15.00
2023-05-24T23:29:10.670Z,14.90
2023-05-24T23:31:37.868Z,14.90
2023-05-24T23:34:05.591Z,14.90
2023-05-24T23:36:32.681Z,14.90
2023-05-24T23:38:59.788Z,14.90
2023-05-24T23:41:27.353Z,14.90
2023-05-24T23:43:54.389Z,14.80
2023-05-24T23:46:21.493Z,14.80
2023-05-24T23:48:48.469Z,14.80
2023-05-24T23:51:15.593Z,14.80
2023-05-24T23:53:42.628Z,14.70
2023-05-24T23:56:09.585Z,14.70
2023-05-24T23:58:37.714Z,14.70
